createdAt,value
2022-08-09T00:01:57.273Z,6.65
2022-08-09T00:04:34.563Z,6.45
2022-08-09T00:07:11.051Z,5.45
2022-08-09T00:09:44.450Z,6.55
2022-08-09T00:12:23.426Z,6.68
2022-08-09T00:14:54.454Z,6.53
2022-08-09T00:18:05.674Z,7.20
2022-08-09T00:20:12.167Z,6.72
2022-08-09T00:22:39.074Z,7.38
2022-08-09T00:25:08.496Z,7.13
2022-08-09T00:27:43.263Z,7.07
2022-08-09T00:30:25.060Z,7.20
2022-08-09T00:32:53.132Z,7.50
2022-08-09T00:35:19.976Z,7.30
2022-08-09T00:37:47.191Z,7.70
2022-08-09T00:40:17.149Z,7.70
2022-08-09T00:44:16.791Z,6.88
2022-08-09T00:45:34.801Z,8.15
2022-08-09T00:48:01.936Z,7.20
2022-08-09T00:50:28.976Z,7.93
2022-08-09T00:52:55.814Z,8.07
2022-08-09T00:55:32.854Z,7.97
2022-08-09T00:58:14.576Z,8.10
2022-08-09T01:00:52.820Z,8.80
2022-08-09T01:03:28.876Z,7.47
2022-08-09T01:06:17.576Z,8.63
2022-08-09T01:08:52.911Z,8.25
2022-08-09T01:11:39.628Z,8.35
2022-08-09T01:14:17.316Z,8.07
2022-08-09T01:16:49.245Z,7.60
2022-08-09T01:19:43.238Z,8.25
2022-08-09T01:22:41.500Z,7.90
2022-08-09T01:25:21.829Z,7.63
2022-08-09T01:27:53.449Z,8.07
2022-08-09T01:30:28.638Z,7.45
2022-08-09T01:33:15.514Z,8.10
2022-08-09T01:35:51.924Z,8.20
2022-08-09T01:38:23.453Z,7.65
2022-08-09T01:41:02.913Z,7.65
2022-08-09T01:43:41.863Z,8.23
2022-08-09T01:46:24.910Z,7.72
2022-08-09T01:48:55.821Z,8.18
2022-08-09T01:51:26.100Z,8.48
2022-08-09T01:53:58.074Z,8.25
2022-08-09T01:56:27.830Z,8.95
2022-08-09T01:58:57.900Z,8.50
2022-08-09T02:01:57.891Z,9.07
2022-08-09T02:04:15.652Z,8.90
2022-08-09T02:07:02.876Z,8.40
2022-08-09T02:09:41.903Z,8.00
2022-08-09T02:12:13.447Z,8.93
2022-08-09T02:14:51.816Z,8.93
2022-08-09T02:20:07.442Z,8.57
2022-08-09T02:22:39.783Z,9.77
2022-08-09T02:25:15.066Z,9.07
2022-08-09T02:28:00.184Z,9.95
2022-08-09T02:30:37.375Z,8.68
2022-08-09T02:33:07.767Z,10.57
2022-08-09T02:36:01.304Z,9.85
2022-08-09T02:38:31.229Z,9.48
2022-08-09T02:41:02.501Z,10.05
2022-08-09T02:43:47.789Z,10.32
2022-08-09T02:46:24.639Z,9.15
2022-08-09T02:48:53.085Z,9.80
2022-08-09T02:51:24.186Z,9.95
2022-08-09T02:54:00.921Z,11.00
2022-08-09T02:56:30.537Z,10.60
2022-08-09T02:58:59.480Z,10.15
2022-08-09T03:02:05.165Z,10.20
2022-08-09T03:04:19.839Z,9.50
2022-08-09T03:06:49.017Z,10.05
2022-08-09T03:09:18.127Z,10.05
2022-08-09T03:12:05.921Z,10.15
2022-08-09T03:14:33.365Z,10.02
2022-08-09T03:17:02.668Z,10.82
2022-08-09T03:19:58.884Z,10.18
2022-08-09T03:22:30.106Z,11.80
2022-08-09T03:25:06.736Z,9.88
2022-08-09T03:27:48.743Z,11.15
2022-08-09T03:30:29.268Z,9.68
2022-08-09T03:33:05.802Z,10.23
2022-08-09T03:36:16.204Z,10.38
2022-08-09T03:38:34.885Z,11.13
2022-08-09T03:41:01.691Z,10.18
2022-08-09T03:43:31.785Z,10.52
2022-08-09T03:46:05.254Z,10.57
2022-08-09T03:48:53.064Z,9.98
2022-08-09T03:51:57.699Z,11.02
2022-08-09T03:54:10.991Z,11.18
2022-08-09T03:56:41.372Z,11.98
2022-08-09T03:59:17.274Z,12.00
2022-08-09T04:01:49.741Z,12.35
2022-08-09T04:04:19.290Z,11.23
2022-08-09T04:06:48.879Z,11.23
2022-08-09T04:09:48.250Z,11.45
2022-08-09T04:12:30.883Z,10.65
2022-08-09T04:15:01.447Z,10.68
2022-08-09T04:17:29.823Z,10.65
2022-08-09T04:19:58.849Z,12.20
2022-08-09T04:22:29.871Z,11.48
2022-08-09T04:24:58.850Z,11.65
2022-08-09T04:27:26.114Z,13.02
2022-08-09T04:29:55.799Z,12.68
2022-08-09T04:32:23.776Z,12.93
2022-08-09T04:35:02.655Z,11.48
2022-08-09T04:37:45.102Z,11.77
2022-08-09T04:40:28.839Z,11.90
2022-08-09T04:43:01.335Z,11.25
2022-08-09T04:45:30.528Z,10.65
2022-08-09T04:48:02.074Z,15.23
2022-08-09T04:50:37.592Z,11.75
2022-08-09T04:53:13.034Z,12.43
2022-08-09T04:55:58.093Z,13.05
2022-08-09T04:58:26.614Z,13.20
2022-08-09T05:00:54.476Z,11.88
2022-08-09T05:03:41.033Z,13.38
2022-08-09T05:06:10.744Z,12.05
2022-08-09T05:08:38.435Z,12.57
2022-08-09T05:11:06.776Z,12.65
2022-08-09T05:13:38.597Z,12.60
2022-08-09T05:16:07.122Z,12.63
2022-08-09T05:18:39.659Z,12.60
2022-08-09T05:21:24.375Z,13.30
2022-08-09T05:24:00.023Z,13.27
2022-08-09T05:26:37.391Z,11.50
2022-08-09T05:29:17.291Z,12.38
2022-08-09T05:31:49.153Z,12.27
2022-08-09T05:34:22.836Z,11.68
2022-08-09T05:36:58.620Z,20.38
2022-08-09T05:39:35.803Z,13.00
2022-08-09T05:42:17.552Z,12.88
2022-08-09T05:44:50.890Z,12.88
2022-08-09T05:47:18.481Z,13.27
2022-08-09T05:50:30.096Z,13.65
2022-08-09T05:52:33.489Z,11.05
2022-08-09T05:55:03.181Z,7.82
2022-08-09T05:57:50.405Z,7.72
2022-08-09T06:00:21.400Z,7.63
2022-08-09T06:02:49.001Z,5.78
2022-08-09T06:05:50.110Z,6.35
2022-08-09T06:08:11.035Z,6.07
2022-08-09T06:10:38.280Z,4.93
2022-08-09T06:13:12.063Z,5.72
2022-08-09T06:15:45.055Z,5.43
2022-08-09T06:18:13.837Z,4.63
2022-08-09T06:20:42.951Z,4.82
2022-08-09T06:23:18.257Z,4.85
2022-08-09T06:25:45.199Z,5.10
2022-08-09T06:28:15.909Z,5.22
2022-08-09T06:30:43.379Z,4.80
2022-08-09T06:33:30.281Z,4.75
2022-08-09T06:35:58.417Z,4.55
2022-08-09T06:38:37.142Z,3.95
2022-08-09T06:41:18.236Z,4.15
2022-08-09T06:43:46.516Z,3.47
2022-08-09T06:46:40.348Z,3.40
2022-08-09T06:49:00.600Z,3.75
2022-08-09T06:51:27.942Z,3.83
2022-08-09T06:54:00.737Z,3.85
2022-08-09T06:56:31.013Z,3.58
2022-08-09T07:00:53.931Z,3.65
2022-08-09T07:01:59.615Z,3.13
2022-08-09T07:04:31.635Z,4.07
2022-08-09T07:07:00.355Z,3.58
2022-08-09T07:09:55.070Z,3.00
2022-08-09T07:12:17.986Z,3.42
2022-08-09T07:14:45.747Z,3.28
2022-08-09T07:19:45.036Z,3.10
2022-08-09T07:22:15.065Z,3.10
2022-08-09T07:24:44.542Z,3.17
2022-08-09T07:27:27.251Z,3.25
2022-08-09T07:30:01.538Z,3.10
2022-08-09T07:32:33.174Z,3.22
2022-08-09T07:35:10.545Z,2.85
2022-08-09T07:37:43.825Z,2.80
2022-08-09T07:40:17.120Z,2.55
2022-08-09T07:42:54.414Z,3.03
2022-08-09T07:45:37.945Z,2.60
2022-08-09T07:48:29.531Z,3.10
2022-08-09T07:51:09.423Z,2.10
2022-08-09T07:54:04.255Z,2.47
2022-08-09T07:56:31.284Z,3.03
2022-08-09T07:58:59.495Z,3.00
2022-08-09T08:01:33.162Z,2.13
2022-08-09T08:04:01.708Z,2.15
2022-08-09T08:06:31.661Z,1.77
2022-08-09T08:09:03.129Z,2.65
2022-08-09T08:12:25.026Z,1.90
2022-08-09T08:14:21.069Z,1.85
2022-08-09T08:17:00.651Z,1.77
2022-08-09T08:19:36.013Z,1.80
2022-08-09T08:22:03.062Z,1.80
2022-08-09T08:24:39.932Z,1.63
2022-08-09T08:27:17.120Z,1.55
2022-08-09T08:29:50.201Z,1.65
2022-08-09T08:32:28.830Z,1.92
2022-08-09T08:34:58.840Z,1.83
2022-08-09T08:37:26.264Z,1.60
2022-08-09T08:40:10.360Z,1.63
2022-08-09T08:42:39.871Z,1.40
2022-08-09T08:45:13.867Z,1.58
2022-08-09T08:47:42.774Z,1.67
2022-08-09T08:50:18.196Z,1.77
2022-08-09T08:52:59.337Z,1.40
2022-08-09T08:55:27.309Z,1.35
2022-08-09T08:57:57.618Z,1.05
2022-08-09T09:00:27.739Z,1.08
2022-08-09T09:03:04.395Z,1.00
2022-08-09T09:06:03.011Z,1.13
2022-08-09T09:08:31.042Z,0.80
2022-08-09T09:11:01.895Z,1.38
2022-08-09T09:13:41.790Z,1.45
2022-08-09T09:16:29.761Z,1.10
2022-08-09T09:19:21.506Z,1.35
2022-08-09T09:22:04.123Z,1.00
2022-08-09T09:24:33.785Z,1.50
2022-08-09T09:27:03.018Z,1.25
2022-08-09T09:30:08.454Z,1.13
2022-08-09T09:32:34.533Z,1.10
2022-08-09T09:35:07.570Z,1.00
2022-08-09T09:37:37.021Z,1.20
2022-08-09T09:40:09.715Z,1.40
2022-08-09T09:42:38.492Z,1.10
2022-08-09T09:45:08.563Z,1.38
2022-08-09T09:47:40.787Z,1.52
2022-08-09T09:50:17.618Z,1.58
2022-08-09T09:52:53.389Z,1.38
2022-08-09T09:55:28.428Z,1.40
2022-08-09T09:58:15.715Z,1.25
2022-08-09T10:00:50.332Z,7.45
2022-08-09T10:03:39.844Z,1.15
2022-08-09T10:06:07.241Z,1.33
2022-08-09T10:08:43.339Z,1.38
2022-08-09T10:14:27.722Z,1.35
2022-08-09T10:17:40.276Z,1.58
2022-08-09T10:19:57.246Z,1.08
2022-08-09T10:22:33.308Z,0.90
2022-08-09T10:25:03.562Z,0.90
2022-08-09T10:27:55.783Z,1.55
2022-08-09T10:33:29.766Z,1.65
2022-08-09T10:36:02.139Z,1.10
2022-08-09T10:38:54.518Z,1.20
2022-08-09T10:41:20.693Z,0.80
2022-08-09T10:43:59.822Z,1.23
2022-08-09T10:46:57.596Z,1.40
2022-08-09T10:49:50.094Z,1.08
2022-08-09T10:52:43.032Z,1.17
2022-08-09T10:55:23.586Z,1.17
2022-08-09T10:57:51.963Z,0.93
2022-08-09T11:01:11.379Z,1.15
2022-08-09T11:03:50.759Z,0.90
2022-08-09T11:06:25.553Z,1.13
2022-08-09T11:08:53.807Z,0.80
2022-08-09T11:11:22.957Z,1.00
2022-08-09T11:14:28.312Z,1.30
2022-08-09T11:16:57.149Z,1.05
2022-08-09T11:20:11.726Z,0.80
2022-08-09T11:23:00.181Z,0.73
2022-08-09T11:25:48.168Z,0.93
2022-08-09T11:28:35.148Z,0.90
2022-08-09T11:31:50.262Z,1.10
2022-08-09T11:34:40.177Z,1.13
2022-08-09T11:37:09.097Z,0.82
2022-08-09T11:40:04.210Z,0.88
2022-08-09T11:42:47.133Z,0.80
2022-08-09T11:45:26.356Z,1.20
2022-08-09T11:48:25.183Z,0.93
2022-08-09T11:52:59.123Z,0.90
2022-08-09T11:54:13.704Z,0.88
2022-08-09T11:56:48.029Z,1.45
2022-08-09T11:59:30.431Z,1.15
2022-08-09T12:02:17.559Z,1.38
2022-08-09T12:04:47.279Z,0.98
2022-08-09T12:07:15.061Z,1.48
2022-08-09T12:09:50.508Z,1.35
2022-08-09T12:12:20.529Z,1.10
2022-08-09T12:15:08.356Z,1.38
2022-08-09T12:17:43.350Z,0.80
2022-08-09T12:20:16.662Z,0.95
2022-08-09T12:22:50.541Z,1.23
2022-08-09T12:25:35.832Z,0.98
2022-08-09T12:29:09.806Z,0.90
2022-08-09T12:30:58.732Z,1.40
2022-08-09T12:33:35.376Z,0.95
2022-08-09T12:36:15.493Z,0.82
2022-08-09T12:38:58.605Z,1.40
2022-08-09T12:41:27.535Z,1.20
2022-08-09T12:44:05.403Z,1.38
2022-08-09T12:46:36.201Z,1.02
2022-08-09T12:49:03.850Z,1.08
2022-08-09T12:52:01.709Z,0.95
2022-08-09T12:54:17.874Z,1.10
2022-08-09T12:56:53.761Z,0.80
2022-08-09T12:59:23.690Z,1.00
2022-08-09T13:02:02.722Z,1.20
2022-08-09T13:04:36.108Z,1.38
2022-08-09T13:07:13.533Z,1.33
2022-08-09T13:09:40.856Z,1.00
2022-08-09T13:12:10.531Z,1.05
2022-08-09T13:14:47.276Z,0.93
2022-08-09T13:17:44.123Z,0.90
2022-08-09T13:20:13.311Z,0.90
2022-08-09T13:23:05.862Z,0.80
2022-08-09T13:25:42.105Z,0.80
2022-08-09T13:30:50.516Z,1.35
2022-08-09T13:33:52.178Z,1.35
2022-08-09T13:36:24.549Z,1.20
2022-08-09T13:41:17.086Z,0.90
2022-08-09T13:42:00.451Z,1.10
2022-08-09T13:44:29.003Z,1.15
2022-08-09T13:47:28.787Z,1.60
2022-08-09T13:49:56.145Z,1.17
2022-08-09T13:52:23.621Z,1.00
2022-08-09T13:54:59.186Z,1.50
2022-08-09T13:57:37.198Z,1.48
2022-08-09T14:00:12.557Z,1.23
2022-08-09T14:03:03.277Z,1.45
2022-08-09T14:05:59.681Z,1.15
2022-08-09T14:08:17.560Z,0.90
2022-08-09T14:10:48.992Z,1.00
2022-08-09T14:13:21.507Z,0.88
2022-08-09T14:16:09.684Z,1.80
2022-08-09T14:18:39.150Z,1.00
2022-08-09T14:21:17.480Z,1.00
2022-08-09T14:23:54.506Z,0.77
2022-08-09T14:26:24.141Z,0.95
2022-08-09T14:28:57.527Z,0.80
2022-08-09T14:31:49.502Z,0.90
2022-08-09T14:34:13.840Z,0.93
2022-08-09T14:36:44.729Z,0.90
2022-08-09T14:39:11.769Z,0.80
2022-08-09T14:41:41.735Z,0.98
2022-08-09T14:44:11.448Z,1.20
2022-08-09T14:46:57.565Z,1.05
2022-08-09T14:49:26.782Z,0.80
2022-08-09T14:51:58.883Z,1.65
2022-08-09T14:54:28.206Z,1.70
2022-08-09T14:56:58.711Z,2.10
2022-08-09T14:59:27.129Z,1.73
2022-08-09T15:01:54.138Z,2.22
2022-08-09T15:04:23.256Z,1.77
2022-08-09T15:06:51.788Z,2.13
2022-08-09T15:10:04.081Z,2.60
2022-08-09T15:12:08.127Z,2.50
2022-08-09T15:14:38.824Z,2.33
2022-08-09T15:17:09.016Z,2.42
2022-08-09T15:19:36.893Z,2.17
2022-08-09T15:22:05.503Z,2.05
2022-08-09T15:24:32.472Z,2.55
2022-08-09T15:26:59.834Z,2.42
2022-08-09T15:30:58.762Z,1.80
2022-08-09T15:32:29.177Z,2.03
2022-08-09T15:35:00.338Z,2.22
2022-08-09T15:37:37.277Z,1.92
2022-08-09T15:40:11.604Z,2.35
2022-08-09T15:42:40.235Z,2.25
2022-08-09T15:45:11.020Z,1.85
2022-08-09T15:47:51.636Z,1.50
2022-08-09T15:50:28.851Z,1.55
2022-08-09T15:53:06.700Z,1.98
2022-08-09T15:55:58.921Z,2.40
2022-08-09T15:58:30.853Z,2.28
2022-08-09T16:00:59.796Z,2.53
2022-08-09T16:03:37.996Z,1.92
2022-08-09T16:06:06.558Z,2.45
2022-08-09T16:08:34.874Z,2.72
2022-08-09T16:11:11.090Z,2.67
2022-08-09T16:14:02.619Z,2.58
2022-08-09T16:16:28.413Z,2.35
2022-08-09T16:18:55.409Z,2.65
2022-08-09T16:21:25.581Z,1.90
2022-08-09T16:23:58.469Z,2.30
2022-08-09T16:26:34.129Z,2.13
2022-08-09T16:29:06.136Z,1.83
2022-08-09T16:32:19.528Z,2.20
2022-08-09T16:34:26.790Z,2.40
2022-08-09T16:36:55.996Z,2.15
2022-08-09T16:39:25.828Z,2.45
2022-08-09T16:42:04.317Z,2.40
2022-08-09T16:44:32.177Z,3.20
2022-08-09T16:47:01.881Z,2.10
2022-08-09T16:50:29.551Z,2.40
2022-08-09T16:52:35.287Z,3.55
2022-08-09T16:55:04.055Z,2.65
2022-08-09T16:58:08.942Z,2.92
2022-08-09T17:00:21.884Z,3.22
2022-08-09T17:02:49.671Z,3.03
2022-08-09T17:05:19.960Z,2.75
2022-08-09T17:08:45.079Z,2.15
2022-08-09T17:10:35.541Z,1.48
2022-08-09T17:13:03.695Z,2.33
2022-08-09T17:15:58.929Z,1.90
2022-08-09T17:18:26.912Z,1.85
2022-08-09T17:20:57.111Z,1.23
2022-08-09T17:24:20.934Z,1.45
2022-08-09T17:26:12.510Z,1.67
2022-08-09T17:28:39.609Z,1.98
2022-08-09T17:31:06.519Z,1.65
2022-08-09T17:33:37.691Z,1.20
2022-08-09T17:36:05.427Z,1.60
2022-08-09T17:38:39.495Z,2.00
2022-08-09T17:41:08.069Z,1.23
2022-08-09T17:43:37.155Z,1.98
2022-08-09T17:46:07.378Z,1.67
2022-08-09T17:48:38.693Z,1.58
2022-08-09T17:51:17.172Z,1.13
2022-08-09T17:53:47.912Z,1.58
2022-08-09T17:56:19.510Z,5.05
2022-08-09T17:58:48.646Z,1.70
2022-08-09T18:01:23.303Z,1.58
2022-08-09T18:03:51.611Z,1.42
2022-08-09T18:06:30.670Z,1.33
2022-08-09T18:09:00.754Z,1.30
2022-08-09T18:11:27.739Z,1.30
2022-08-09T18:14:02.515Z,1.35
2022-08-09T18:16:32.895Z,1.20
2022-08-09T18:19:03.778Z,1.52
2022-08-09T18:21:41.349Z,1.20
2022-08-09T18:24:14.211Z,1.40
2022-08-09T18:26:46.595Z,1.33
2022-08-09T18:30:42.198Z,1.25
2022-08-09T18:32:04.026Z,1.52
2022-08-09T18:34:35.200Z,1.17
2022-08-09T18:37:02.504Z,1.77
2022-08-09T18:39:32.026Z,1.83
2022-08-09T18:42:05.443Z,1.60
2022-08-09T18:44:37.082Z,1.27
2022-08-09T18:47:09.682Z,1.20
2022-08-09T18:49:46.370Z,1.80
2022-08-09T18:52:16.141Z,1.10
2022-08-09T18:54:53.472Z,1.60
2022-08-09T18:57:22.497Z,1.55
2022-08-09T18:59:57.488Z,1.90
2022-08-09T19:02:31.668Z,1.50
2022-08-09T19:05:04.441Z,1.98
2022-08-09T19:08:04.938Z,1.50
2022-08-09T19:10:37.575Z,1.73
2022-08-09T19:13:22.180Z,1.58
2022-08-09T19:15:56.602Z,1.83
2022-08-09T19:18:33.291Z,2.00
2022-08-09T19:21:03.468Z,1.38
2022-08-09T19:24:31.883Z,2.15
2022-08-09T19:26:19.278Z,2.03
2022-08-09T19:29:01.232Z,2.13
2022-08-09T19:31:45.274Z,1.90
2022-08-09T19:34:21.922Z,1.98
2022-08-09T19:36:51.080Z,2.60
2022-08-09T19:39:20.530Z,2.00
2022-08-09T19:41:47.861Z,2.63
2022-08-09T19:44:15.369Z,2.13
2022-08-09T19:46:50.675Z,2.65
2022-08-09T19:50:07.770Z,2.10
2022-08-09T19:52:07.998Z,2.03
2022-08-09T19:54:35.056Z,2.00
2022-08-09T19:57:02.517Z,1.80
2022-08-09T19:59:58.203Z,2.92
2022-08-09T20:04:17.882Z,2.55
2022-08-09T20:05:10.172Z,2.13
2022-08-09T20:07:58.524Z,3.30
2022-08-09T20:10:28.066Z,1.90
2022-08-09T20:13:02.423Z,1.88
2022-08-09T20:16:34.352Z,2.30
2022-08-09T20:18:22.440Z,3.08
2022-08-09T20:20:51.100Z,2.42
2022-08-09T20:23:19.638Z,2.83
2022-08-09T20:25:51.994Z,2.33
2022-08-09T20:28:27.716Z,2.72
2022-08-09T20:31:01.037Z,3.00
2022-08-09T20:33:39.149Z,2.90
2022-08-09T20:36:08.805Z,2.92
2022-08-09T20:38:57.391Z,2.90
2022-08-09T20:41:34.986Z,3.63
2022-08-09T20:44:10.058Z,2.78
2022-08-09T20:46:43.126Z,2.88
2022-08-09T20:49:13.532Z,2.92
2022-08-09T20:51:41.993Z,3.03
2022-08-09T20:54:12.740Z,3.00
2022-08-09T20:56:43.767Z,3.60
2022-08-09T20:59:17.202Z,2.92
2022-08-09T21:01:50.557Z,4.50
2022-08-09T21:05:51.828Z,3.50
2022-08-09T21:07:11.712Z,3.78
2022-08-09T21:09:55.575Z,3.42
2022-08-09T21:15:12.933Z,3.88
2022-08-09T21:18:21.017Z,3.15
2022-08-09T21:20:29.838Z,3.65
2022-08-09T21:22:57.490Z,4.57
2022-08-09T21:25:44.258Z,3.85
2022-08-09T21:28:33.383Z,4.30
2022-08-09T21:31:13.520Z,4.80
2022-08-09T21:33:50.679Z,4.65
2022-08-09T21:36:20.898Z,5.00
2022-08-09T21:38:50.937Z,4.72
2022-08-09T21:41:59.825Z,4.43
2022-08-09T21:44:11.984Z,4.50
2022-08-09T21:46:42.356Z,4.65
2022-08-09T21:49:09.990Z,4.90
2022-08-09T21:51:43.533Z,4.85
2022-08-09T21:54:12.136Z,5.00
2022-08-09T21:56:44.636Z,5.32
2022-08-09T21:59:23.177Z,5.35
2022-08-09T22:02:00.226Z,4.75
2022-08-09T22:04:33.583Z,4.28
2022-08-09T22:07:35.534Z,4.78
2022-08-09T22:10:04.455Z,4.95
2022-08-09T22:12:31.947Z,4.88
2022-08-09T22:14:59.350Z,5.32
2022-08-09T22:17:27.936Z,4.38
2022-08-09T22:20:00.597Z,5.22
2022-08-09T22:22:29.553Z,4.68
2022-08-09T22:26:03.961Z,4.88
2022-08-09T22:27:43.379Z,4.72
2022-08-09T22:30:11.763Z,4.85
2022-08-09T22:32:38.831Z,4.57
2022-08-09T22:36:02.367Z,4.13
2022-08-09T22:38:07.327Z,4.82
2022-08-09T22:40:34.792Z,4.70
2022-08-09T22:43:16.213Z,4.90
2022-08-09T22:48:16.515Z,4.85
2022-08-09T22:48:35.729Z,4.80
2022-08-09T22:51:10.277Z,4.60
2022-08-09T22:53:58.750Z,4.50
2022-08-09T22:56:30.654Z,4.68
2022-08-09T22:59:00.696Z,5.10
2022-08-09T23:01:27.601Z,3.60
2022-08-09T23:04:03.834Z,4.70
2022-08-09T23:06:51.237Z,4.53
2022-08-09T23:09:19.366Z,4.25
2022-08-09T23:11:46.205Z,4.20
2022-08-09T23:14:17.554Z,4.82
2022-08-09T23:19:23.838Z,4.20
2022-08-09T23:21:50.884Z,4.18
2022-08-09T23:24:19.028Z,4.55
2022-08-09T23:26:45.977Z,4.70
2022-08-09T23:29:13.884Z,4.25
2022-08-09T23:31:41.314Z,5.20
2022-08-09T23:34:09.039Z,4.68
2022-08-09T23:36:36.814Z,5.38
2022-08-09T23:39:06.138Z,4.25
2022-08-09T23:41:34.883Z,4.47
2022-08-09T23:44:02.552Z,4.20
2022-08-09T23:46:30.231Z,4.82
2022-08-09T23:48:57.545Z,4.57
2022-08-09T23:51:24.448Z,4.40
2022-08-09T23:53:52.398Z,4.28
2022-08-09T23:56:53.052Z,4.55
2022-08-09T23:59:10.771Z,4.60
